createdAt,value
2019-05-20T00:00:06.690Z,15.98
2019-05-20T00:02:35.750Z,16.65
2019-05-20T00:05:05.438Z,15.23
2019-05-20T00:07:34.488Z,15.20
2019-05-20T00:10:05.553Z,16.55
2019-05-20T00:12:34.608Z,16.23
2019-05-20T00:15:05.409Z,17.75
2019-05-20T00:17:34.487Z,17.57
2019-05-20T00:20:07.496Z,15.48
2019-05-20T00:22:36.553Z,15.65
2019-05-20T00:25:07.445Z,16.50
2019-05-20T00:27:36.566Z,16.07
2019-05-20T00:30:06.328Z,16.75
2019-05-20T00:32:41.027Z,17.02
2019-05-20T00:35:07.246Z,16.05
2019-05-20T00:37:36.297Z,16.15
2019-05-20T00:40:07.369Z,16.50
2019-05-20T00:42:36.416Z,16.15
2019-05-20T00:45:06.453Z,14.38
2019-05-20T00:47:35.560Z,13.72
2019-05-20T00:50:05.965Z,13.13
2019-05-20T00:52:35.010Z,13.62
2019-05-20T00:55:06.221Z,12.68
2019-05-20T00:57:35.280Z,12.07
2019-05-20T01:00:06.474Z,12.95
2019-05-20T01:02:35.567Z,12.40
2019-05-20T01:05:05.469Z,13.05
2019-05-20T01:07:34.541Z,13.25
2019-05-20T01:10:07.199Z,13.08
2019-05-20T01:12:36.316Z,14.35
2019-05-20T01:15:06.989Z,14.98
2019-05-20T01:17:36.052Z,12.80
2019-05-20T01:20:06.730Z,13.98
2019-05-20T01:22:36.221Z,14.23
2019-05-20T01:25:06.729Z,12.13
2019-05-20T01:27:35.783Z,10.25
2019-05-20T01:30:07.904Z,13.03
2019-05-20T01:32:36.999Z,11.33
2019-05-20T01:35:07.117Z,10.95
2019-05-20T01:37:36.181Z,10.30
2019-05-20T01:40:05.597Z,10.40
2019-05-20T01:42:34.732Z,10.82
2019-05-20T01:45:04.223Z,12.70
2019-05-20T01:47:33.360Z,12.35
2019-05-20T01:50:02.507Z,12.63
2019-05-20T01:52:31.698Z,11.53
2019-05-20T01:55:00.831Z,15.03
2019-05-20T01:57:29.899Z,15.75
2019-05-20T01:59:58.957Z,17.87
2019-05-20T02:02:28.030Z,13.50
2019-05-20T02:04:57.103Z,11.65
2019-05-20T02:07:26.596Z,14.70
2019-05-20T02:09:55.652Z,15.35
2019-05-20T02:12:24.711Z,13.05
2019-05-20T02:15:01.119Z,12.20
2019-05-20T02:17:30.195Z,15.05
2019-05-20T02:19:59.239Z,12.30
2019-05-20T02:22:28.288Z,14.20
2019-05-20T02:24:57.338Z,12.05
2019-05-20T02:27:26.414Z,11.40
2019-05-20T02:29:55.468Z,13.28
2019-05-20T02:32:24.541Z,11.73
2019-05-20T02:34:53.954Z,11.68
2019-05-20T02:37:23.085Z,12.37
2019-05-20T02:39:52.155Z,11.90
2019-05-20T02:42:21.284Z,13.08
2019-05-20T02:44:50.340Z,12.23
2019-05-20T02:47:19.404Z,14.50
2019-05-20T02:49:48.460Z,12.00
2019-05-20T02:52:17.589Z,14.85
2019-05-20T02:54:46.644Z,12.05
2019-05-20T02:57:15.717Z,14.53
2019-05-20T02:59:44.769Z,13.32
2019-05-20T03:02:13.840Z,13.85
2019-05-20T03:04:42.967Z,15.25
2019-05-20T03:07:12.103Z,15.53
2019-05-20T03:09:41.237Z,12.58
2019-05-20T03:12:10.295Z,14.35
2019-05-20T03:14:39.350Z,15.98
2019-05-20T03:17:08.412Z,15.40
2019-05-20T03:19:37.477Z,17.75
2019-05-20T03:22:06.578Z,16.42
2019-05-20T03:24:35.683Z,14.50
2019-05-20T03:27:04.740Z,16.67
2019-05-20T03:29:33.807Z,15.15
2019-05-20T03:32:02.967Z,19.57
2019-05-20T03:34:47.637Z,19.65
2019-05-20T03:37:02.880Z,19.05
2019-05-20T03:39:31.937Z,21.02
2019-05-20T03:42:00.995Z,18.25
2019-05-20T03:44:30.076Z,17.73
2019-05-20T03:46:59.124Z,17.02
2019-05-20T03:49:28.189Z,19.05
2019-05-20T03:51:57.261Z,19.27
2019-05-20T03:54:26.404Z,19.87
2019-05-20T03:56:55.519Z,19.35
2019-05-20T03:59:24.946Z,19.82
2019-05-20T04:01:54.086Z,21.65
2019-05-20T04:04:25.237Z,20.52
2019-05-20T04:06:54.016Z,16.48
2019-05-20T04:09:23.083Z,14.13
2019-05-20T04:11:52.136Z,15.90
2019-05-20T04:14:21.198Z,15.10
2019-05-20T04:16:51.729Z,13.60
2019-05-20T04:19:20.861Z,13.55
2019-05-20T04:21:49.918Z,13.00
2019-05-20T04:24:19.156Z,15.83
2019-05-20T04:26:50.716Z,15.68
2019-05-20T04:29:19.900Z,13.08
2019-05-20T04:31:48.940Z,14.15
2019-05-20T04:34:18.012Z,12.33
2019-05-20T04:36:47.078Z,12.98
2019-05-20T04:39:16.162Z,11.50
2019-05-20T04:41:45.303Z,11.40
2019-05-20T04:44:14.372Z,11.35
2019-05-20T04:46:43.442Z,12.63
2019-05-20T04:49:12.691Z,12.58
2019-05-20T04:51:41.745Z,13.43
2019-05-20T04:54:10.802Z,13.25
2019-05-20T04:56:39.864Z,12.80
2019-05-20T04:59:08.926Z,12.65
2019-05-20T05:01:37.999Z,12.68
2019-05-20T05:04:07.145Z,12.43
2019-05-20T05:06:36.225Z,12.23
2019-05-20T05:09:06.807Z,14.68
2019-05-20T05:11:36.115Z,13.83
2019-05-20T05:14:05.312Z,13.32
2019-05-20T05:16:34.374Z,15.10
2019-05-20T05:19:03.504Z,12.75
2019-05-20T05:21:32.568Z,14.85
2019-05-20T05:24:01.680Z,14.58
2019-05-20T05:26:30.818Z,15.40
2019-05-20T05:28:59.877Z,13.88
2019-05-20T05:31:28.952Z,14.13
2019-05-20T05:33:58.078Z,15.35
2019-05-20T05:36:27.214Z,13.85
2019-05-20T05:38:56.399Z,14.78
2019-05-20T05:41:25.782Z,15.32
2019-05-20T05:43:54.825Z,14.15
2019-05-20T05:46:23.900Z,13.75
2019-05-20T05:48:52.973Z,15.80
2019-05-20T05:51:22.101Z,15.40
2019-05-20T05:53:51.153Z,14.78
2019-05-20T05:56:20.214Z,15.43
2019-05-20T05:58:49.282Z,13.65
2019-05-20T06:01:18.335Z,15.00
2019-05-20T06:03:47.406Z,15.75
2019-05-20T06:06:16.479Z,15.32
2019-05-20T06:08:45.569Z,16.40
2019-05-20T06:11:14.702Z,16.73
2019-05-20T06:13:44.093Z,17.48
2019-05-20T06:16:13.164Z,16.00
2019-05-20T06:18:42.320Z,14.43
2019-05-20T06:21:11.376Z,15.35
2019-05-20T06:23:40.446Z,15.75
2019-05-20T06:26:09.519Z,18.27
2019-05-20T06:28:38.657Z,17.30
2019-05-20T06:31:07.810Z,17.48
2019-05-20T06:33:36.940Z,15.40
2019-05-20T06:36:05.996Z,16.00
2019-05-20T06:38:37.289Z,17.30
2019-05-20T06:41:08.088Z,16.93
2019-05-20T06:43:37.276Z,18.12
2019-05-20T06:46:06.459Z,18.30
2019-05-20T06:48:35.531Z,18.67
2019-05-20T06:51:04.684Z,18.23
2019-05-20T06:53:33.828Z,18.48
2019-05-20T06:56:02.889Z,18.05
2019-05-20T06:58:31.961Z,17.67
2019-05-20T07:01:01.120Z,17.10
2019-05-20T07:03:30.204Z,18.42
2019-05-20T07:05:59.287Z,18.10
2019-05-20T07:08:28.746Z,17.82
2019-05-20T07:10:57.869Z,18.57
2019-05-20T07:13:27.124Z,19.52
2019-05-20T07:15:56.262Z,17.57
2019-05-20T07:18:27.440Z,17.98
2019-05-20T07:20:56.263Z,18.50
2019-05-20T07:23:25.307Z,18.62
2019-05-20T07:25:54.380Z,17.65
2019-05-20T07:28:23.817Z,16.00
2019-05-20T07:30:52.949Z,16.07
2019-05-20T07:33:22.021Z,15.95
2019-05-20T07:35:51.082Z,15.63
2019-05-20T07:38:20.129Z,14.33
2019-05-20T07:40:49.206Z,14.95
2019-05-20T07:43:18.330Z,16.77
2019-05-20T07:45:47.726Z,15.23
2019-05-20T07:48:16.956Z,14.60
2019-05-20T07:50:46.711Z,13.30
2019-05-20T07:53:16.328Z,14.28
2019-05-20T07:56:09.363Z,14.85
2019-05-20T07:58:41.438Z,15.28
2019-05-20T08:01:10.651Z,14.55
2019-05-20T08:03:39.714Z,13.45
2019-05-20T08:06:08.871Z,14.35
2019-05-20T08:08:37.953Z,13.30
2019-05-20T08:11:07.107Z,14.05
2019-05-20T08:13:36.165Z,12.70
2019-05-20T08:16:05.310Z,13.50
2019-05-20T08:18:34.381Z,13.20
2019-05-20T08:21:03.564Z,12.37
2019-05-20T08:23:32.720Z,13.53
2019-05-20T08:26:01.897Z,13.05
2019-05-20T08:28:30.971Z,12.60
2019-05-20T08:31:00.097Z,13.62
2019-05-20T08:33:29.260Z,13.45
2019-05-20T08:35:58.380Z,13.60
2019-05-20T08:38:27.540Z,12.03
2019-05-20T08:40:56.672Z,13.03
2019-05-20T08:43:25.754Z,13.35
2019-05-20T08:45:54.910Z,13.08
2019-05-20T08:48:24.052Z,13.30
2019-05-20T08:50:53.124Z,15.60
2019-05-20T08:53:22.180Z,14.80
2019-05-20T08:55:51.431Z,13.90
2019-05-20T08:58:20.539Z,15.30
2019-05-20T09:00:49.666Z,15.20
2019-05-20T09:03:18.720Z,14.70
2019-05-20T09:05:47.776Z,15.20
2019-05-20T09:08:16.841Z,14.98
2019-05-20T09:10:45.978Z,14.78
2019-05-20T09:13:15.117Z,14.10
2019-05-20T09:15:45.537Z,15.05
2019-05-20T09:18:14.784Z,13.55
2019-05-20T09:21:13.947Z,14.47
2019-05-20T09:23:35.804Z,14.05
2019-05-20T09:26:04.888Z,12.15
2019-05-20T09:28:34.636Z,13.22
2019-05-20T09:31:03.784Z,14.40
2019-05-20T09:33:32.948Z,12.15
2019-05-20T09:36:03.442Z,11.53
2019-05-20T09:38:32.595Z,11.43
2019-05-20T09:41:01.676Z,11.28
2019-05-20T09:43:30.750Z,11.38
2019-05-20T09:46:07.470Z,12.82
2019-05-20T09:48:30.672Z,11.57
2019-05-20T09:50:59.733Z,10.75
2019-05-20T09:53:28.806Z,10.45
2019-05-20T09:55:57.862Z,10.72
2019-05-20T09:58:46.288Z,11.05
2019-05-20T10:01:15.348Z,10.85
2019-05-20T10:03:44.433Z,12.20
2019-05-20T10:06:13.497Z,10.55
2019-05-20T10:08:45.456Z,10.48
2019-05-20T10:11:14.834Z,10.95
2019-05-20T10:13:44.010Z,10.45
2019-05-20T10:16:13.075Z,10.03
2019-05-20T10:18:42.139Z,9.93
2019-05-20T10:21:11.332Z,10.00
2019-05-20T10:23:40.393Z,10.60
2019-05-20T10:26:09.460Z,9.58
2019-05-20T10:28:42.090Z,9.40
2019-05-20T10:31:09.917Z,9.70
2019-05-20T10:33:43.786Z,9.20
2019-05-20T10:36:12.536Z,8.28
2019-05-20T10:38:56.930Z,7.67
2019-05-20T10:41:12.392Z,8.10
2019-05-20T10:43:41.485Z,6.90
2019-05-20T10:46:10.833Z,8.28
2019-05-20T10:48:40.141Z,7.72
2019-05-20T10:51:10.438Z,7.17
2019-05-20T10:53:39.933Z,7.80
2019-05-20T10:56:08.969Z,6.95
2019-05-20T10:58:38.009Z,6.95
2019-05-20T11:01:07.129Z,7.08
2019-05-20T11:03:36.183Z,7.55
2019-05-20T11:06:05.545Z,8.48
2019-05-20T11:08:34.974Z,7.70
2019-05-20T11:11:04.196Z,7.65
2019-05-20T11:13:33.300Z,7.62
2019-05-20T11:16:05.274Z,7.35
2019-05-20T11:18:34.432Z,8.15
2019-05-20T11:24:15.216Z,7.30
2019-05-20T11:26:44.284Z,8.98
2019-05-20T11:29:13.417Z,8.48
2019-05-20T11:31:42.834Z,8.00
2019-05-20T11:34:11.946Z,8.10
2019-05-20T11:36:41.050Z,8.30
2019-05-20T11:39:10.243Z,7.87
2019-05-20T11:41:52.869Z,6.87
2019-05-20T11:44:12.013Z,6.75
2019-05-20T11:46:40.865Z,7.00
2019-05-20T11:49:09.913Z,7.28
2019-05-20T11:51:38.960Z,9.33
2019-05-20T11:54:08.013Z,6.12
2019-05-20T11:56:36.772Z,5.70
2019-05-20T11:59:05.915Z,7.05
2019-05-20T12:01:34.780Z,7.20
2019-05-20T12:04:04.005Z,5.08
2019-05-20T12:06:33.103Z,5.50
2019-05-20T12:09:02.145Z,5.50
2019-05-20T12:11:31.190Z,4.50
2019-05-20T12:14:00.308Z,5.00
2019-05-20T12:16:29.421Z,5.22
2019-05-20T12:18:58.537Z,7.37
2019-05-20T12:21:27.580Z,5.60
2019-05-20T12:23:56.701Z,7.87
2019-05-20T12:26:25.731Z,6.92
2019-05-20T12:28:54.790Z,5.65
2019-05-20T12:31:23.820Z,5.30
2019-05-20T12:33:52.859Z,5.83
2019-05-20T12:36:23.825Z,5.90
2019-05-20T12:38:52.647Z,6.00
2019-05-20T12:41:21.702Z,4.95
2019-05-20T12:44:10.207Z,5.00
2019-05-20T12:46:21.649Z,7.95
2019-05-20T12:48:50.712Z,7.33
2019-05-20T12:51:19.819Z,8.30
2019-05-20T12:53:52.401Z,6.47
2019-05-20T12:56:22.867Z,6.08
2019-05-20T12:58:51.976Z,5.62
2019-05-20T13:01:20.823Z,6.50
2019-05-20T13:03:49.936Z,8.50
2019-05-20T13:06:19.212Z,7.67
2019-05-20T13:08:48.258Z,8.60
2019-05-20T13:11:17.358Z,5.97
2019-05-20T13:13:55.192Z,6.22
2019-05-20T13:16:30.444Z,6.10
2019-05-20T13:19:00.703Z,6.87
2019-05-20T13:21:29.710Z,6.47
2019-05-20T13:23:58.523Z,6.47
2019-05-20T13:26:27.640Z,7.60
2019-05-20T13:28:59.392Z,7.17
2019-05-20T13:31:27.348Z,6.22
2019-05-20T13:33:56.455Z,7.60
2019-05-20T13:36:25.237Z,7.20
2019-05-20T13:38:54.101Z,7.80
2019-05-20T13:41:22.904Z,7.00
2019-05-20T13:43:51.650Z,6.30
2019-05-20T13:46:20.404Z,6.17
2019-05-20T13:48:49.150Z,5.87
2019-05-20T13:51:17.927Z,7.13
2019-05-20T13:53:46.693Z,7.23
2019-05-20T13:56:15.443Z,6.07
2019-05-20T13:58:44.487Z,7.28
2019-05-20T14:01:13.242Z,7.30
2019-05-20T14:03:41.990Z,8.03
2019-05-20T14:06:11.064Z,6.47
2019-05-20T14:08:39.885Z,6.73
2019-05-20T14:11:08.718Z,5.83
2019-05-20T14:13:37.555Z,5.60
2019-05-20T14:16:06.393Z,6.23
2019-05-20T14:18:35.235Z,6.53
2019-05-20T14:21:04.054Z,5.97
2019-05-20T14:23:32.909Z,6.33
2019-05-20T14:26:01.809Z,5.90
2019-05-20T14:28:30.626Z,6.03
2019-05-20T14:30:59.377Z,5.20
2019-05-20T14:33:28.161Z,5.70
2019-05-20T14:35:56.969Z,5.90
2019-05-20T14:38:25.753Z,5.43
2019-05-20T14:40:54.582Z,5.60
2019-05-20T14:43:23.460Z,5.07
2019-05-20T14:45:52.238Z,5.10
2019-05-20T14:48:20.990Z,5.10
2019-05-20T14:50:49.746Z,5.73
2019-05-20T14:53:18.569Z,4.87
2019-05-20T14:55:47.322Z,4.83
2019-05-20T14:58:16.148Z,4.93
2019-05-20T15:00:44.911Z,5.37
2019-05-20T15:03:13.654Z,5.10
2019-05-20T15:05:42.469Z,4.93
2019-05-20T15:08:11.280Z,5.07
2019-05-20T15:10:40.106Z,4.87
2019-05-20T15:13:08.864Z,4.87
2019-05-20T15:15:37.608Z,4.23
2019-05-20T15:18:06.380Z,4.80
2019-05-20T15:20:35.124Z,4.67
2019-05-20T15:23:03.958Z,4.80
2019-05-20T15:25:32.732Z,4.77
2019-05-20T15:28:01.556Z,4.00
2019-05-20T15:30:30.298Z,4.13
2019-05-20T15:32:59.369Z,4.50
2019-05-20T15:35:28.110Z,3.77
2019-05-20T15:37:56.864Z,3.80
2019-05-20T15:40:25.609Z,3.37
2019-05-20T15:42:54.387Z,3.77
2019-05-20T15:45:23.357Z,3.67
2019-05-20T15:47:52.125Z,3.53
2019-05-20T15:50:21.063Z,3.40
2019-05-20T15:52:49.860Z,3.10
2019-05-20T15:55:18.596Z,3.00
2019-05-20T15:57:47.340Z,3.30
2019-05-20T16:00:16.450Z,3.27
2019-05-20T16:02:45.214Z,3.00
2019-05-20T16:05:14.069Z,3.60
2019-05-20T16:07:42.804Z,3.43
2019-05-20T16:10:11.690Z,3.10
2019-05-20T16:12:40.443Z,3.93
2019-05-20T16:15:09.685Z,3.83
2019-05-20T16:17:38.603Z,3.43
2019-05-20T16:20:07.983Z,3.60
2019-05-20T16:22:36.717Z,3.60
2019-05-20T16:25:08.703Z,3.60
2019-05-20T16:27:37.524Z,3.67
2019-05-20T16:30:08.939Z,3.70
2019-05-20T16:32:37.765Z,3.60
2019-05-20T16:35:07.256Z,3.43
2019-05-20T16:37:36.043Z,3.70
2019-05-20T16:40:09.800Z,3.40
2019-05-20T16:42:38.732Z,3.50
2019-05-20T16:45:11.779Z,3.30
2019-05-20T16:47:40.053Z,3.30
2019-05-20T16:50:10.095Z,3.70
2019-05-20T16:52:39.193Z,3.43
2019-05-20T16:55:09.300Z,3.43
2019-05-20T16:57:38.134Z,3.80
2019-05-20T17:00:27.902Z,3.17
2019-05-20T17:02:38.579Z,3.83
2019-05-20T17:05:07.491Z,3.80
2019-05-20T17:07:36.233Z,3.50
2019-05-20T17:10:08.819Z,3.90
2019-05-20T17:12:37.650Z,4.33
2019-05-20T17:15:08.345Z,3.30
2019-05-20T17:17:37.304Z,3.50
2019-05-20T17:20:07.206Z,3.70
2019-05-20T17:22:35.954Z,3.53
2019-05-20T17:25:06.738Z,3.23
2019-05-20T17:27:35.773Z,4.00
2019-05-20T17:30:08.868Z,3.60
2019-05-20T17:32:37.621Z,3.67
2019-05-20T17:35:07.029Z,4.05
2019-05-20T17:37:36.114Z,3.60
2019-05-20T17:40:07.870Z,3.70
2019-05-20T17:42:36.700Z,4.17
2019-05-20T17:45:07.367Z,3.80
2019-05-20T17:47:36.204Z,3.90
2019-05-20T17:50:17.767Z,4.03
2019-05-20T17:52:46.547Z,4.07
2019-05-20T17:55:35.006Z,4.03
2019-05-20T17:58:03.839Z,4.53
2019-05-20T18:00:32.584Z,4.87
2019-05-20T18:03:01.339Z,4.30
2019-05-20T18:05:30.155Z,4.33
2019-05-20T18:07:58.932Z,4.20
2019-05-20T18:10:47.328Z,4.20
2019-05-20T18:13:16.147Z,3.90
2019-05-20T18:15:44.924Z,3.67
2019-05-20T18:18:13.751Z,3.93
2019-05-20T18:20:42.567Z,3.93
2019-05-20T18:23:11.326Z,4.40
2019-05-20T18:25:40.076Z,3.97
2019-05-20T18:28:09.150Z,4.25
2019-05-20T18:30:37.966Z,4.00
2019-05-20T18:33:07.101Z,3.90
2019-05-20T18:35:36.215Z,4.37
2019-05-20T18:38:05.347Z,4.45
2019-05-20T18:40:34.377Z,4.12
2019-05-20T18:43:03.431Z,4.35
2019-05-20T18:45:32.463Z,4.15
2019-05-20T18:48:01.531Z,4.28
2019-05-20T18:50:30.634Z,4.20
2019-05-20T18:52:59.677Z,4.50
2019-05-20T18:55:28.709Z,3.90
2019-05-20T18:57:57.733Z,4.17
2019-05-20T19:00:27.145Z,4.70
2019-05-20T19:02:56.183Z,4.45
2019-05-20T19:05:25.310Z,5.05
2019-05-20T19:07:54.416Z,4.70
2019-05-20T19:10:23.547Z,4.70
2019-05-20T19:12:52.315Z,4.47
2019-05-20T19:15:21.370Z,4.60
2019-05-20T19:17:50.396Z,4.80
2019-05-20T19:20:22.872Z,5.40
2019-05-20T19:22:50.222Z,5.22
2019-05-20T19:25:19.287Z,5.17
2019-05-20T19:27:48.325Z,5.50
2019-05-20T19:30:18.508Z,5.65
2019-05-20T19:32:47.546Z,6.10
2019-05-20T19:35:16.792Z,6.17
2019-05-20T19:37:45.893Z,6.03
2019-05-20T19:40:15.020Z,6.12
2019-05-20T19:42:44.036Z,6.15
2019-05-20T19:45:13.663Z,6.58
2019-05-20T19:47:42.743Z,6.42
2019-05-20T19:50:12.105Z,7.00
2019-05-20T19:52:41.301Z,7.00
2019-05-20T19:55:10.665Z,6.75
2019-05-20T19:57:39.789Z,7.12
2019-05-20T20:00:09.459Z,7.25
2019-05-20T20:02:38.567Z,6.90
2019-05-20T20:05:07.968Z,6.70
2019-05-20T20:07:37.078Z,7.12
2019-05-20T20:10:06.877Z,7.50
2019-05-20T20:12:35.945Z,7.22
2019-05-20T20:15:06.876Z,7.65
2019-05-20T20:17:35.977Z,6.83
2019-05-20T20:20:05.777Z,6.72
2019-05-20T20:22:34.811Z,7.20
2019-05-20T20:25:05.406Z,6.70
2019-05-20T20:27:34.432Z,7.30
2019-05-20T20:30:04.333Z,7.03
2019-05-20T20:32:38.014Z,6.83
2019-05-20T20:35:06.324Z,6.55
2019-05-20T20:37:35.429Z,6.78
2019-05-20T20:40:04.890Z,6.75
2019-05-20T20:42:34.004Z,6.75
2019-05-20T20:45:03.043Z,6.75
2019-05-20T20:47:41.302Z,6.30
2019-05-20T20:50:04.812Z,6.45
2019-05-20T20:52:33.899Z,7.08
2019-05-20T20:55:03.302Z,6.62
2019-05-20T20:57:32.351Z,6.42
2019-05-20T21:00:01.445Z,6.45
2019-05-20T21:02:30.624Z,6.60
2019-05-20T21:04:59.660Z,6.62
2019-05-20T21:07:28.710Z,6.17
2019-05-20T21:09:57.782Z,6.33
2019-05-20T21:12:26.878Z,6.58
2019-05-20T21:14:55.924Z,6.20
2019-05-20T21:17:25.029Z,6.72
2019-05-20T21:19:54.062Z,7.10
2019-05-20T21:22:23.109Z,6.90
2019-05-20T21:24:52.165Z,6.75
2019-05-20T21:27:21.231Z,7.00
2019-05-20T21:29:50.275Z,6.67
2019-05-20T21:32:19.335Z,6.83
2019-05-20T21:34:48.389Z,6.40
2019-05-20T21:37:17.517Z,6.40
2019-05-20T21:39:46.564Z,7.15
2019-05-20T21:42:15.689Z,7.03
2019-05-20T21:44:44.722Z,6.80
2019-05-20T21:47:13.770Z,6.87
2019-05-20T21:49:42.812Z,7.33
2019-05-20T21:52:11.882Z,7.10
2019-05-20T21:54:40.957Z,7.08
2019-05-20T21:57:10.057Z,6.83
2019-05-20T21:59:39.102Z,6.90
2019-05-20T22:02:08.205Z,6.65
2019-05-20T22:04:37.241Z,6.67
2019-05-20T22:07:06.273Z,7.08
2019-05-20T22:09:35.324Z,6.53
2019-05-20T22:12:04.448Z,5.95
2019-05-20T22:14:33.504Z,6.47
2019-05-20T22:17:02.687Z,6.30
2019-05-20T22:19:31.831Z,6.20
2019-05-20T22:22:05.232Z,5.70
2019-05-20T22:24:34.059Z,5.42
2019-05-20T22:27:03.090Z,5.92
2019-05-20T22:29:32.153Z,6.30
2019-05-20T22:32:01.200Z,5.47
2019-05-20T22:34:30.242Z,5.90
2019-05-20T22:36:59.296Z,6.20
2019-05-20T22:39:28.350Z,6.30
2019-05-20T22:41:57.404Z,6.08
2019-05-20T22:44:26.450Z,6.05
2019-05-20T22:46:55.494Z,6.05
2019-05-20T22:49:24.569Z,5.78
2019-05-20T22:51:53.657Z,6.15
2019-05-20T22:54:22.769Z,6.67
2019-05-20T22:56:51.806Z,6.67
2019-05-20T22:59:20.866Z,6.40
2019-05-20T23:01:49.910Z,7.05
2019-05-20T23:04:18.961Z,6.67
2019-05-20T23:06:48.008Z,7.03
2019-05-20T23:09:18.611Z,6.05
2019-05-20T23:11:47.926Z,6.08
2019-05-20T23:14:17.026Z,6.22
2019-05-20T23:16:46.091Z,6.17
2019-05-20T23:19:15.154Z,6.08
2019-05-20T23:21:44.211Z,6.33
2019-05-20T23:24:13.254Z,6.00
2019-05-20T23:26:42.390Z,5.53
2019-05-20T23:29:11.554Z,5.50
2019-05-20T23:31:40.669Z,5.87
2019-05-20T23:34:12.883Z,6.10
2019-05-20T23:36:40.502Z,5.95
2019-05-20T23:39:09.618Z,6.20
2019-05-20T23:41:38.669Z,5.90
2019-05-20T23:44:07.702Z,6.60
2019-05-20T23:46:36.758Z,7.00
2019-05-20T23:49:05.866Z,7.12
2019-05-20T23:51:34.913Z,6.83
2019-05-20T23:54:03.952Z,6.30
2019-05-20T23:56:32.997Z,6.78
2019-05-20T23:59:02.056Z,7.05
